createdAt,value
2019-04-26T00:01:20.539Z,6.78
2019-04-26T00:03:51.568Z,7.35
2019-04-26T00:06:21.894Z,6.95
2019-04-26T00:09:05.657Z,7.60
2019-04-26T00:11:50.973Z,7.00
2019-04-26T00:14:39.139Z,7.05
2019-04-26T00:17:13.617Z,7.00
2019-04-26T00:19:43.994Z,7.67
2019-04-26T00:22:15.368Z,8.00
2019-04-26T00:24:45.327Z,7.27
2019-04-26T00:27:15.240Z,7.55
2019-04-26T00:29:45.182Z,7.83
2019-04-26T00:32:15.425Z,6.70
2019-04-26T00:34:45.361Z,7.12
2019-04-26T00:37:15.910Z,7.15
2019-04-26T00:39:45.980Z,7.92
2019-04-26T00:42:16.505Z,8.00
2019-04-26T00:44:46.758Z,7.25
2019-04-26T00:47:19.040Z,7.58
2019-04-26T00:49:50.781Z,7.37
2019-04-26T00:52:21.609Z,7.78
2019-04-26T00:54:51.942Z,7.03
2019-04-26T00:57:22.456Z,7.37
2019-04-26T00:59:52.605Z,7.75
2019-04-26T01:02:33.244Z,7.67
2019-04-26T01:05:03.264Z,6.85
2019-04-26T01:07:33.116Z,8.88
2019-04-26T01:10:04.667Z,7.97
2019-04-26T01:12:34.521Z,8.70
2019-04-26T01:15:06.190Z,7.83
2019-04-26T01:17:36.196Z,7.83
2019-04-26T01:20:07.335Z,7.53
2019-04-26T01:22:40.238Z,6.90
2019-04-26T01:25:29.705Z,7.40
2019-04-26T01:28:00.467Z,7.92
2019-04-26T01:30:32.988Z,7.70
2019-04-26T01:33:04.051Z,6.80
2019-04-26T01:35:33.936Z,7.70
2019-04-26T01:38:07.730Z,7.33
2019-04-26T01:40:38.447Z,7.83
2019-04-26T01:43:10.449Z,6.75
2019-04-26T01:45:44.872Z,7.08
2019-04-26T01:48:51.221Z,7.28
2019-04-26T01:51:24.530Z,6.87
2019-04-26T01:53:55.707Z,7.15
2019-04-26T01:56:29.279Z,6.87
2019-04-26T01:59:00.507Z,7.62
2019-04-26T02:01:32.090Z,7.30
2019-04-26T02:04:02.068Z,7.60
2019-04-26T02:06:34.913Z,6.85
2019-04-26T02:09:05.167Z,7.40
2019-04-26T02:11:35.786Z,7.12
2019-04-26T02:14:06.271Z,7.22
2019-04-26T02:16:36.888Z,7.92
2019-04-26T02:19:06.947Z,8.03
2019-04-26T02:21:38.680Z,7.25
2019-04-26T02:24:15.975Z,7.62
2019-04-26T02:26:46.971Z,7.10
2019-04-26T02:29:22.793Z,7.05
2019-04-26T02:31:58.286Z,6.97
2019-04-26T02:34:31.090Z,7.08
2019-04-26T02:37:03.690Z,6.72
2019-04-26T02:39:39.804Z,6.97
2019-04-26T02:42:30.147Z,7.92
2019-04-26T02:45:22.080Z,6.78
2019-04-26T02:48:05.294Z,7.03
2019-04-26T02:50:38.744Z,6.60
2019-04-26T02:53:28.808Z,7.20
2019-04-26T02:56:16.154Z,7.37
2019-04-26T02:58:51.943Z,7.33
2019-04-26T03:01:21.897Z,8.03
2019-04-26T03:03:53.703Z,6.95
2019-04-26T03:06:23.994Z,7.55
2019-04-26T03:08:57.103Z,7.50
2019-04-26T03:11:31.463Z,6.47
2019-04-26T03:14:12.407Z,7.23
2019-04-26T03:17:03.145Z,8.50
2019-04-26T03:19:55.746Z,6.87
2019-04-26T03:22:39.425Z,6.47
2019-04-26T03:25:21.027Z,7.17
2019-04-26T03:28:25.698Z,7.50
2019-04-26T03:31:18.283Z,7.28
2019-04-26T03:34:17.623Z,7.03
2019-04-26T03:36:55.567Z,6.80
2019-04-26T03:39:37.148Z,6.50
2019-04-26T03:42:22.330Z,5.97
2019-04-26T03:44:55.138Z,7.62
2019-04-26T03:47:30.690Z,7.80
2019-04-26T03:50:15.651Z,7.25
2019-04-26T03:52:54.030Z,7.50
2019-04-26T03:55:28.424Z,7.08
2019-04-26T03:58:11.714Z,7.58
2019-04-26T04:00:48.277Z,6.40
2019-04-26T04:03:28.729Z,6.40
2019-04-26T04:06:02.288Z,7.25
2019-04-26T04:08:56.253Z,7.67
2019-04-26T04:11:30.094Z,6.72
2019-04-26T04:14:14.886Z,6.75
2019-04-26T04:16:51.951Z,7.37
2019-04-26T04:20:02.843Z,6.40
2019-04-26T04:22:35.695Z,6.65
2019-04-26T04:25:08.550Z,7.15
2019-04-26T04:27:41.991Z,6.53
2019-04-26T04:30:31.055Z,7.13
2019-04-26T04:33:24.983Z,6.87
2019-04-26T04:35:57.859Z,6.57
2019-04-26T04:38:34.216Z,7.12
2019-04-26T04:41:20.452Z,6.93
2019-04-26T04:44:06.614Z,7.05
2019-04-26T04:46:48.043Z,6.57
2019-04-26T04:49:41.210Z,7.47
2019-04-26T04:52:23.525Z,6.17
2019-04-26T04:55:07.503Z,6.57
2019-04-26T04:57:43.868Z,6.72
2019-04-26T05:00:51.910Z,8.38
2019-04-26T05:03:32.395Z,7.40
2019-04-26T05:06:21.718Z,7.92
2019-04-26T05:08:57.442Z,6.47
2019-04-26T05:11:47.649Z,7.45
2019-04-26T05:14:50.816Z,7.20
2019-04-26T05:17:41.802Z,9.65
2019-04-26T05:20:14.767Z,8.98
2019-04-26T05:23:21.019Z,7.25
2019-04-26T05:26:10.624Z,7.17
2019-04-26T05:29:04.528Z,8.20
2019-04-26T05:31:54.325Z,8.48
2019-04-26T05:34:31.249Z,8.75
2019-04-26T05:37:37.264Z,8.35
2019-04-26T05:40:30.863Z,9.63
2019-04-26T05:43:25.339Z,9.80
2019-04-26T05:46:21.918Z,9.38
2019-04-26T05:49:02.256Z,9.08
2019-04-26T05:51:45.449Z,8.93
2019-04-26T05:54:42.695Z,10.68
2019-04-26T05:57:36.461Z,10.10
2019-04-26T06:00:19.632Z,10.23
2019-04-26T06:03:16.005Z,10.55
2019-04-26T06:06:05.523Z,11.33
2019-04-26T06:08:45.703Z,11.35
2019-04-26T06:11:22.722Z,11.43
2019-04-26T06:14:20.987Z,12.20
2019-04-26T06:17:07.391Z,11.55
2019-04-26T06:19:47.288Z,12.33
2019-04-26T06:22:20.157Z,12.07
2019-04-26T06:25:00.451Z,14.05
2019-04-26T06:27:46.487Z,14.50
2019-04-26T06:30:22.962Z,16.07
2019-04-26T06:33:07.755Z,15.48
2019-04-26T06:35:42.312Z,15.20
2019-04-26T06:38:44.110Z,14.83
2019-04-26T06:41:25.371Z,15.68
2019-04-26T06:44:05.277Z,19.48
2019-04-26T06:47:05.195Z,18.33
2019-04-26T06:50:06.367Z,18.02
2019-04-26T06:52:39.219Z,18.60
2019-04-26T06:55:13.652Z,19.60
2019-04-26T06:58:21.515Z,18.42
2019-04-26T07:01:08.038Z,18.92
2019-04-26T07:03:53.295Z,18.60
2019-04-26T07:06:35.341Z,18.10
2019-04-26T07:09:11.501Z,17.92
2019-04-26T07:12:10.183Z,18.45
2019-04-26T07:14:59.293Z,20.35
2019-04-26T07:17:49.277Z,20.55
2019-04-26T07:20:22.296Z,19.75
2019-04-26T07:23:30.343Z,20.32
2019-04-26T07:26:14.966Z,20.82
2019-04-26T07:29:01.392Z,21.23
2019-04-26T07:31:43.178Z,20.60
2019-04-26T07:34:17.652Z,21.07
2019-04-26T07:36:53.291Z,22.25
2019-04-26T07:39:52.224Z,22.67
2019-04-26T07:42:47.683Z,21.85
2019-04-26T07:45:36.752Z,25.32
2019-04-26T07:48:24.974Z,28.42
2019-04-26T07:51:17.455Z,23.92
2019-04-26T07:54:18.960Z,25.30
2019-04-26T07:57:08.703Z,27.30
2019-04-26T08:00:06.518Z,30.90
2019-04-26T08:02:44.148Z,32.93
2019-04-26T08:05:24.699Z,33.00
2019-04-26T08:07:57.656Z,33.63
2019-04-26T08:10:30.225Z,36.85
2019-04-26T08:13:09.998Z,48.60
2019-04-26T08:15:56.684Z,39.20
2019-04-26T08:18:36.804Z,34.58
2019-04-26T08:21:18.496Z,34.53
2019-04-26T08:23:56.512Z,33.90
2019-04-26T08:26:27.195Z,35.55
2019-04-26T08:29:00.595Z,35.78
2019-04-26T08:31:36.035Z,35.30
2019-04-26T08:34:12.275Z,37.90
2019-04-26T08:36:51.658Z,36.08
2019-04-26T08:39:32.555Z,40.60
2019-04-26T08:42:01.812Z,43.48
2019-04-26T08:44:40.091Z,44.63
2019-04-26T08:47:16.440Z,44.60
2019-04-26T08:49:54.490Z,42.93
2019-04-26T08:52:28.195Z,36.20
2019-04-26T08:55:00.813Z,36.35
2019-04-26T08:57:33.735Z,37.75
2019-04-26T09:00:10.994Z,39.38
2019-04-26T09:02:45.763Z,39.48
2019-04-26T09:05:32.119Z,40.20
2019-04-26T09:08:04.320Z,36.10
2019-04-26T09:10:39.354Z,39.27
2019-04-26T09:13:10.963Z,37.58
2019-04-26T09:16:06.723Z,37.30
2019-04-26T09:18:43.451Z,38.23
2019-04-26T09:21:08.347Z,35.03
2019-04-26T09:23:51.118Z,37.50
2019-04-26T09:26:30.498Z,37.17
2019-04-26T09:29:18.147Z,31.10
2019-04-26T09:31:50.510Z,34.55
2019-04-26T09:34:33.753Z,34.20
2019-04-26T09:37:03.864Z,37.58
2019-04-26T09:39:33.779Z,33.25
2019-04-26T09:42:12.012Z,35.83
2019-04-26T09:44:49.545Z,38.73
2019-04-26T09:47:37.591Z,36.85
2019-04-26T09:50:16.732Z,38.75
2019-04-26T09:52:51.095Z,39.18
2019-04-26T09:55:20.978Z,32.73
2019-04-26T09:57:53.537Z,31.82
2019-04-26T10:00:24.536Z,29.37
2019-04-26T10:02:54.536Z,30.50
2019-04-26T10:05:24.530Z,29.37
2019-04-26T10:07:54.502Z,27.15
2019-04-26T10:10:26.456Z,29.00
2019-04-26T10:13:00.995Z,28.85
2019-04-26T10:15:48.491Z,27.55
2019-04-26T10:18:20.263Z,28.65
2019-04-26T10:20:51.610Z,29.37
2019-04-26T10:23:21.537Z,30.75
2019-04-26T10:25:51.925Z,28.55
2019-04-26T10:28:22.972Z,27.85
2019-04-26T10:30:52.840Z,27.45
2019-04-26T10:33:22.819Z,28.02
2019-04-26T10:35:56.543Z,31.07
2019-04-26T10:38:25.460Z,25.32
2019-04-26T10:40:55.565Z,25.92
2019-04-26T10:43:25.450Z,25.65
2019-04-26T10:45:55.359Z,25.17
2019-04-26T10:48:25.402Z,26.77
2019-04-26T10:50:55.282Z,23.38
2019-04-26T10:53:39.010Z,24.23
2019-04-26T10:56:20.244Z,24.00
2019-04-26T10:58:58.373Z,20.82
2019-04-26T11:01:29.448Z,21.02
2019-04-26T11:03:59.391Z,20.75
2019-04-26T11:06:29.281Z,17.52
2019-04-26T11:08:59.214Z,18.92
2019-04-26T11:11:29.176Z,16.90
2019-04-26T11:13:59.095Z,15.80
2019-04-26T11:16:29.042Z,17.17
2019-04-26T11:19:01.179Z,18.02
2019-04-26T11:21:31.506Z,15.98
2019-04-26T11:24:01.387Z,17.17
2019-04-26T11:26:34.668Z,15.23
2019-04-26T11:29:02.851Z,14.85
2019-04-26T11:31:32.803Z,13.80
2019-04-26T11:34:05.510Z,13.95
2019-04-26T11:36:37.616Z,13.05
2019-04-26T11:39:08.069Z,12.90
2019-04-26T11:41:39.169Z,13.98
2019-04-26T11:44:09.230Z,12.98
2019-04-26T11:46:45.050Z,13.75
2019-04-26T11:49:10.952Z,11.55
2019-04-26T11:51:40.854Z,12.82
2019-04-26T11:54:10.891Z,12.85
2019-04-26T11:56:40.798Z,10.63
2019-04-26T11:59:10.676Z,10.68
2019-04-26T12:01:42.034Z,11.38
2019-04-26T12:04:16.400Z,10.50
2019-04-26T12:07:04.204Z,10.40
2019-04-26T12:09:39.383Z,10.25
2019-04-26T12:12:12.922Z,9.43
2019-04-26T12:14:40.881Z,9.45
2019-04-26T12:17:10.941Z,9.23
2019-04-26T12:19:40.949Z,10.63
2019-04-26T12:22:10.904Z,10.60
2019-04-26T12:24:40.903Z,9.95
2019-04-26T12:27:10.914Z,9.33
2019-04-26T12:29:44.285Z,10.10
2019-04-26T12:32:12.679Z,10.32
2019-04-26T12:34:42.796Z,10.00
2019-04-26T12:37:19.712Z,8.50
2019-04-26T12:39:45.155Z,9.63
2019-04-26T12:42:15.324Z,9.50
2019-04-26T12:44:46.826Z,8.38
2019-04-26T12:47:21.380Z,8.58
2019-04-26T12:49:54.536Z,7.97
2019-04-26T12:52:22.946Z,8.48
2019-04-26T12:54:52.825Z,8.70
2019-04-26T12:57:22.693Z,7.30
2019-04-26T12:59:52.610Z,8.85
2019-04-26T13:02:22.525Z,8.80
2019-04-26T13:04:52.475Z,9.53
2019-04-26T13:07:24.452Z,7.78
2019-04-26T13:10:12.817Z,7.83
2019-04-26T15:01:18.313Z,9.30
2019-04-26T15:04:06.113Z,8.80
2019-04-26T15:06:37.529Z,8.90
2019-04-26T15:09:18.052Z,7.58
2019-04-26T15:11:51.174Z,8.28
2019-04-26T15:14:12.763Z,7.70
2019-04-26T15:16:44.954Z,7.60
2019-04-26T15:19:14.921Z,6.62
2019-04-26T15:21:44.817Z,7.37
2019-04-26T15:24:14.730Z,7.65
2019-04-26T15:26:44.663Z,7.05
2019-04-26T15:29:14.531Z,7.30
2019-04-26T15:31:44.420Z,8.25
2019-04-26T15:34:14.335Z,7.80
2019-04-26T15:36:47.911Z,8.23
2019-04-26T15:39:33.112Z,7.60
2019-04-26T15:42:23.792Z,6.90
2019-04-26T15:44:57.551Z,5.92
2019-04-26T15:47:43.484Z,6.40
2019-04-26T15:50:17.793Z,7.37
2019-04-26T15:52:47.723Z,7.30
2019-04-26T15:55:17.646Z,7.30
2019-04-26T15:57:47.563Z,9.10
2019-04-26T16:00:17.676Z,7.97
2019-04-26T16:02:47.675Z,10.40
2019-04-26T16:05:17.575Z,9.25
2019-04-26T16:07:47.471Z,9.55
2019-04-26T16:10:17.539Z,9.55
2019-04-26T16:12:47.476Z,9.18
2019-04-26T16:15:17.452Z,9.53
2019-04-26T16:17:47.401Z,7.85
2019-04-26T16:20:17.295Z,7.10
2019-04-26T16:22:49.109Z,6.75
2019-04-26T16:25:18.778Z,5.53
2019-04-26T16:27:50.251Z,6.37
2019-04-26T16:30:28.408Z,5.85
2019-04-26T16:32:58.949Z,7.83
2019-04-26T16:35:29.508Z,6.65
2019-04-26T16:38:02.627Z,7.05
2019-04-26T16:40:32.672Z,6.75
2019-04-26T16:43:04.204Z,6.70
2019-04-26T16:45:37.283Z,6.60
2019-04-26T16:48:05.805Z,6.40
2019-04-26T16:50:41.924Z,7.47
2019-04-26T16:53:23.219Z,6.58
2019-04-26T16:55:48.900Z,7.55
2019-04-26T16:58:12.645Z,6.17
2019-04-26T17:00:51.623Z,6.70
2019-04-26T17:03:14.381Z,7.08
2019-04-26T17:05:48.103Z,7.30
2019-04-26T17:08:19.076Z,6.85
2019-04-26T17:10:47.467Z,6.67
2019-04-26T17:13:17.390Z,6.50
2019-04-26T17:15:47.263Z,6.05
2019-04-26T17:18:19.317Z,6.40
2019-04-26T17:20:49.010Z,7.20
2019-04-26T17:23:23.948Z,6.83
2019-04-26T17:26:06.784Z,6.97
2019-04-26T17:28:36.872Z,8.15
2019-04-26T17:31:06.758Z,7.92
2019-04-26T17:33:36.668Z,7.50
2019-04-26T17:36:11.348Z,8.85
2019-04-26T17:38:40.522Z,10.38
2019-04-26T17:41:13.418Z,10.55
2019-04-26T17:43:47.601Z,9.08
2019-04-26T17:46:14.569Z,10.18
2019-04-26T17:48:49.444Z,9.80
2019-04-26T17:51:19.356Z,9.63
2019-04-26T17:53:50.618Z,10.20
2019-04-26T17:56:21.522Z,9.90
2019-04-26T17:58:54.570Z,9.40
2019-04-26T18:01:42.242Z,10.10
2019-04-26T18:03:55.924Z,9.93
2019-04-26T18:06:29.835Z,9.68
2019-04-26T18:08:57.588Z,8.80
2019-04-26T18:11:27.522Z,9.63
2019-04-26T18:13:57.592Z,9.15
2019-04-26T18:16:29.658Z,10.00
2019-04-26T18:19:05.122Z,9.33
2019-04-26T18:21:39.814Z,8.63
2019-04-26T18:24:09.912Z,8.60
2019-04-26T18:26:39.913Z,8.98
2019-04-26T18:29:09.939Z,9.40
2019-04-26T18:31:39.970Z,8.48
2019-04-26T18:34:09.978Z,9.13
2019-04-26T18:36:40.053Z,8.95
2019-04-26T18:39:10.245Z,8.50
2019-04-26T18:41:40.463Z,8.55
2019-04-26T18:44:10.381Z,12.75
2019-04-26T18:46:47.907Z,9.08
2019-04-26T18:49:22.509Z,8.73
2019-04-26T18:51:50.135Z,7.17
2019-04-26T18:54:24.442Z,8.60
2019-04-26T18:56:58.879Z,8.18
2019-04-26T18:59:28.756Z,7.20
2019-04-26T19:01:58.676Z,7.28
2019-04-26T19:04:28.569Z,7.40
2019-04-26T19:06:59.411Z,8.10
2019-04-26T19:09:31.387Z,8.40
2019-04-26T19:12:01.639Z,7.45
2019-04-26T19:14:33.484Z,7.92
2019-04-26T19:17:14.166Z,8.43
2019-04-26T19:20:02.090Z,8.20
2019-04-26T19:22:34.582Z,8.30
2019-04-26T19:25:18.825Z,8.10
2019-04-26T19:27:47.260Z,7.95
2019-04-26T19:30:11.078Z,8.55
2019-04-26T19:32:41.065Z,7.30
2019-04-26T19:35:14.290Z,8.20
2019-04-26T19:37:43.394Z,7.37
2019-04-26T19:40:15.155Z,7.83
2019-04-26T19:42:45.030Z,7.70
2019-04-26T19:45:22.346Z,7.47
2019-04-26T19:48:18.735Z,7.72
2019-04-26T19:50:54.292Z,7.83
2019-04-26T19:53:25.734Z,8.38
2019-04-26T19:56:06.108Z,8.25
2019-04-26T19:58:41.960Z,8.03
2019-04-26T20:01:16.467Z,7.90
2019-04-26T20:03:47.377Z,8.00
2019-04-26T20:06:18.784Z,8.43
2019-04-26T20:08:49.636Z,8.40
2019-04-26T20:11:20.080Z,9.35
2019-04-26T20:13:51.917Z,9.10
2019-04-26T20:16:22.328Z,9.18
2019-04-26T20:18:53.087Z,8.30
2019-04-26T20:21:23.017Z,9.08
2019-04-26T20:23:54.556Z,8.25
2019-04-26T20:26:24.634Z,9.55
2019-04-26T20:28:54.511Z,8.38
2019-04-26T20:31:37.625Z,9.08
2019-04-26T20:34:10.761Z,9.40
2019-04-26T20:36:41.629Z,9.33
2019-04-26T20:39:09.575Z,10.25
2019-04-26T20:41:40.027Z,9.80
2019-04-26T20:44:10.266Z,9.43
2019-04-26T20:46:42.494Z,10.32
2019-04-26T20:49:12.253Z,10.35
2019-04-26T20:51:46.052Z,10.58
2019-04-26T20:54:16.278Z,8.88
2019-04-26T20:56:46.176Z,10.08
2019-04-26T20:59:20.097Z,10.68
2019-04-26T21:02:02.480Z,11.18
2019-04-26T21:04:35.104Z,10.13
2019-04-26T21:06:52.049Z,10.28
2019-04-26T21:09:23.255Z,10.43
2019-04-26T21:11:53.118Z,10.25
2019-04-26T21:14:23.368Z,9.75
2019-04-26T21:16:53.305Z,10.88
2019-04-26T21:19:23.236Z,10.05
2019-04-26T21:21:53.248Z,10.38
2019-04-26T21:24:24.676Z,10.03
2019-04-26T21:27:02.168Z,10.95
2019-04-26T21:29:36.552Z,9.78
2019-04-26T21:32:08.050Z,10.80
2019-04-26T21:34:44.972Z,9.80
2019-04-26T21:37:23.668Z,9.65
2019-04-26T21:39:58.102Z,11.03
2019-04-26T21:42:28.027Z,10.90
2019-04-26T21:44:57.927Z,10.15
2019-04-26T21:47:31.862Z,11.12
2019-04-26T21:50:00.761Z,12.47
2019-04-26T21:52:32.053Z,10.82
2019-04-26T21:55:01.910Z,10.58
2019-04-26T21:57:31.979Z,12.28
2019-04-26T22:00:04.021Z,10.80
2019-04-26T22:02:37.490Z,11.28
2019-04-26T22:05:07.967Z,10.98
2019-04-26T22:07:39.485Z,10.70
2019-04-26T22:10:23.928Z,11.40
2019-04-26T22:12:53.982Z,12.45
2019-04-26T22:15:29.597Z,11.40
2019-04-26T22:18:03.201Z,10.93
2019-04-26T22:20:44.347Z,10.53
2019-04-26T22:23:16.314Z,12.33
2019-04-26T22:25:50.054Z,10.85
2019-04-26T22:28:19.974Z,10.88
2019-04-26T22:30:51.076Z,11.33
2019-04-26T22:33:21.016Z,12.40
2019-04-26T22:35:55.265Z,12.15
2019-04-26T22:38:26.612Z,11.73
2019-04-26T22:40:56.133Z,12.05
2019-04-26T22:43:27.121Z,11.43
2019-04-26T22:46:03.182Z,11.80
2019-04-26T22:48:37.717Z,11.65
2019-04-26T22:51:07.669Z,12.60
2019-04-26T22:53:37.575Z,11.97
2019-04-26T22:56:08.493Z,12.23
2019-04-26T22:58:38.523Z,11.48
2019-04-26T23:01:08.520Z,11.15
2019-04-26T23:03:41.231Z,11.33
2019-04-26T23:06:12.943Z,12.37
2019-04-26T23:08:43.804Z,11.63
2019-04-26T23:11:13.840Z,12.20
2019-04-26T23:13:45.360Z,11.93
2019-04-26T23:16:16.816Z,11.12
2019-04-26T23:18:48.314Z,11.80
2019-04-26T23:21:33.918Z,11.93
2019-04-26T23:24:03.869Z,12.23
2019-04-26T23:26:37.557Z,12.23
2019-04-26T23:29:08.725Z,13.53
2019-04-26T23:31:37.533Z,11.22
2019-04-26T23:34:07.773Z,12.43
2019-04-26T23:36:37.668Z,11.53
2019-04-26T23:39:11.816Z,12.15
2019-04-26T23:41:41.579Z,11.70
2019-04-26T23:44:10.971Z,11.70
2019-04-26T23:46:40.875Z,11.30
2019-04-26T23:49:10.801Z,12.40
2019-04-26T23:51:42.952Z,12.55
2019-04-26T23:54:13.734Z,11.25
2019-04-26T23:56:43.891Z,12.45
2019-04-26T23:59:14.990Z,11.65
